Time;durP1;ratioP1;P1;durP2;ratioP2;P2;SDS_P1;SDS_P2;PMS_P1;PMS_P2;Temp;Humidity;BMP_temperature;BMP_pressure;BME280_temperature;BME280_humidity;BME280_pressure;Samples;Min_cycle;Max_cycle;Signal;HPM_P1;HPM_P2
2021/10/05 00:00:53;;;;;;;11.00;8.37;;;;;;;11.22;77.51;100216.91;5068138;28;20511;-70
2021/10/05 00:03:20;;;;;;;11.13;9.57;;;;;;;11.19;77.68;100210.00;5063371;28;20461;-70
2021/10/05 00:05:46;;;;;;;10.87;9.30;;;;;;;11.14;77.89;100214.94;5074660;28;20486;-70
2021/10/05 00:08:13;;;;;;;10.47;8.97;;;;;;;11.07;78.08;100216.50;5082333;28;20460;-70
2021/10/05 00:10:39;;;;;;;12.37;9.90;;;;;;;11.11;77.81;100212.56;5069623;28;20619;-70
2021/10/05 00:13:06;;;;;;;10.73;8.60;;;;;;;11.18;77.73;100212.81;5068020;28;20463;-70
2021/10/05 00:15:34;;;;;;;13.83;10.10;;;;;;;11.06;78.13;100215.69;5070042;28;20464;-70
2021/10/05 00:18:01;;;;;;;9.80;8.73;;;;;;;10.92;78.85;100206.28;5074697;28;20484;-70
2021/10/05 00:20:28;;;;;;;10.93;8.83;;;;;;;10.81;78.85;100214.44;5063546;28;20532;-70
2021/10/05 00:22:55;;;;;;;10.67;9.53;;;;;;;10.81;79.13;100205.59;5070593;28;20509;-70
2021/10/05 00:25:21;;;;;;;11.90;10.00;;;;;;;10.86;79.05;100204.16;5078902;28;20942;-70
2021/10/05 00:27:48;;;;;;;12.90;9.30;;;;;;;10.96;78.63;100209.50;5079065;28;20530;-70
2021/10/05 00:30:15;;;;;;;11.70;10.13;;;;;;;11.00;78.44;100210.06;5072679;28;20440;-71
2021/10/05 00:32:42;;;;;;;10.67;9.57;;;;;;;11.07;78.11;100209.31;5074954;28;20495;-70
2021/10/05 00:35:11;;;;;;;12.80;10.80;;;;;;;11.01;78.15;100209.91;5063798;28;20536;-71
2021/10/05 00:37:38;;;;;;;11.90;9.80;;;;;;;10.98;78.36;100195.97;5068229;28;20492;-70
2021/10/05 00:40:06;;;;;;;13.37;10.50;;;;;;;11.06;77.85;100198.78;5082424;28;20467;-70
2021/10/05 00:42:32;;;;;;;12.97;10.80;;;;;;;10.89;78.75;100193.19;5075740;28;20480;-70
2021/10/05 00:44:59;;;;;;;11.77;9.93;;;;;;;10.83;78.78;100203.59;5074280;28;20531;-70
2021/10/05 00:47:26;;;;;;;12.17;9.83;;;;;;;10.83;78.80;100201.78;5070952;28;20476;-70
2021/10/05 00:49:54;;;;;;;11.90;9.73;;;;;;;10.92;78.52;100194.75;5071613;28;20512;-71
2021/10/05 00:52:21;;;;;;;11.60;10.40;;;;;;;10.95;78.58;100198.94;5067190;28;20591;-70
2021/10/05 00:54:48;;;;;;;11.33;10.00;;;;;;;10.87;78.79;100197.84;5078257;28;20465;-70
2021/10/05 00:57:15;;;;;;;12.17;10.03;;;;;;;10.89;78.53;100187.81;5061697;28;20484;-70
2021/10/05 00:59:42;;;;;;;14.70;10.23;;;;;;;11.02;78.34;100178.66;5063444;28;20527;-70
2021/10/05 01:02:11;;;;;;;14.50;11.20;;;;;;;10.92;78.50;100176.84;5080597;28;20994;-70
2021/10/05 01:04:38;;;;;;;12.60;10.57;;;;;;;10.90;78.76;100169.94;5080023;28;20472;-70
2021/10/05 01:07:08;;;;;;;14.10;11.70;;;;;;;10.90;78.75;100168.13;5079284;28;20479;-70
2021/10/05 01:09:35;;;;;;;13.23;10.43;;;;;;;10.86;78.94;100166.72;5081844;28;20459;-70
2021/10/05 01:12:02;;;;;;;13.60;11.23;;;;;;;10.92;78.77;100158.13;5062810;28;20559;-70
2021/10/05 01:14:29;;;;;;;14.07;11.20;;;;;;;10.86;78.64;100157.84;5070834;28;20495;-70
2021/10/05 01:16:58;;;;;;;16.57;12.20;;;;;;;10.72;79.40;100157.31;5080563;28;20503;-70
2021/10/05 01:19:25;;;;;;;14.53;11.70;;;;;;;10.78;79.42;100145.22;5075987;28;20451;-70
2021/10/05 01:21:53;;;;;;;13.83;12.03;;;;;;;10.76;79.33;100146.34;5079257;28;20511;-70
2021/10/05 01:24:21;;;;;;;14.40;11.50;;;;;;;10.73;79.32;100139.47;5079237;28;20487;-70
2021/10/05 01:26:48;;;;;;;15.13;12.70;;;;;;;10.65;79.74;100140.16;5080408;28;21004;-70
2021/10/05 01:29:16;;;;;;;13.37;11.20;;;;;;;10.82;79.54;100132.41;5073427;28;20602;-68
2021/10/05 01:31:45;;;;;;;13.40;10.53;;;;;;;10.71;79.35;100130.72;5075848;28;20507;-69
2021/10/05 01:34:12;;;;;;;17.07;12.63;;;;;;;10.71;79.40;100128.91;5061248;28;21015;-70
2021/10/05 01:36:39;;;;;;;13.40;11.70;;;;;;;10.70;79.78;100121.84;5075739;28;20514;-70
2021/10/05 01:39:09;;;;;;;15.77;12.03;;;;;;;10.84;79.23;100117.03;5078036;28;20579;-70
2021/10/05 01:41:35;;;;;;;15.33;12.60;;;;;;;10.76;79.55;100109.72;5060545;28;20500;-71
2021/10/05 01:44:02;;;;;;;15.13;12.73;;;;;;;10.78;79.62;100113.13;5061157;28;20900;-71
2021/10/05 01:46:29;;;;;;;15.60;13.03;;;;;;;10.79;79.32;100106.78;5063435;28;20913;-71
2021/10/05 01:48:56;;;;;;;15.00;12.27;;;;;;;10.71;79.61;100096.81;5074893;28;20915;-71
2021/10/05 01:51:22;;;;;;;19.70;13.23;;;;;;;10.76;79.50;100101.72;5060491;28;20477;-70
2021/10/05 01:53:49;;;;;;;15.70;13.20;;;;;;;10.68;80.14;100096.28;5064661;28;20487;-70
2021/10/05 01:56:19;;;;;;;17.63;13.47;;;;;;;10.69;79.88;100087.25;5060578;28;20547;-68
2021/10/05 01:58:47;;;;;;;16.37;12.93;;;;;;;10.70;79.73;100087.09;5078189;28;20455;-70
2021/10/05 02:01:13;;;;;;;15.17;12.80;;;;;;;10.83;79.11;100083.25;5069768;28;20491;-70
2021/10/05 02:03:40;;;;;;;15.30;12.30;;;;;;;10.81;79.18;100077.22;5079534;28;20462;-70
2021/10/05 02:06:07;;;;;;;15.87;12.80;;;;;;;10.78;79.01;100074.81;5064089;28;20469;-71
2021/10/05 02:08:33;;;;;;;16.40;13.57;;;;;;;10.67;79.50;100078.53;5067941;28;20464;-71
2021/10/05 02:11:00;;;;;;;16.40;12.87;;;;;;;10.65;79.74;100069.81;5082875;28;20495;-71
2021/10/05 02:13:30;;;;;;;17.30;13.40;;;;;;;10.57;80.02;100065.19;5067790;28;20491;-70
2021/10/05 02:15:56;;;;;;;18.43;15.20;;;;;;;10.63;80.04;100069.97;5084239;28;20510;-70
2021/10/05 02:18:23;;;;;;;14.20;12.37;;;;;;;10.68;79.80;100066.84;5083237;28;20527;-70
2021/10/05 02:20:49;;;;;;;18.53;13.23;;;;;;;10.71;79.76;100064.72;5071115;28;20481;-70
2021/10/05 02:23:16;;;;;;;19.43;13.53;;;;;;;10.76;79.38;100058.09;5082245;28;21002;-70
2021/10/05 02:25:43;;;;;;;17.60;13.30;;;;;;;10.64;79.95;100063.63;5067894;28;20496;-70
2021/10/05 02:28:09;;;;;;;19.47;14.07;;;;;;;10.67;79.92;100060.66;5064203;28;20479;-68
2021/10/05 02:30:38;;;;;;;16.47;13.90;;;;;;;10.58;80.42;100055.34;5071973;28;20544;-68
2021/10/05 02:33:05;;;;;;;22.30;14.90;;;;;;;10.62;80.57;100054.06;5083219;28;20516;-68
2021/10/05 02:35:31;;;;;;;16.30;13.97;;;;;;;10.62;80.72;100043.38;5080274;28;20483;-68
2021/10/05 02:37:58;;;;;;;20.33;15.83;;;;;;;10.76;80.17;100042.88;5083947;28;20566;-68
2021/10/05 02:40:25;;;;;;;20.10;16.13;;;;;;;10.71;80.43;100034.47;5083496;28;20475;-68
2021/10/05 02:42:51;;;;;;;21.30;16.27;;;;;;;10.64;80.48;100031.56;5071343;28;20512;-67
2021/10/05 02:45:18;;;;;;;21.50;16.73;;;;;;;10.67;80.59;100033.06;5064905;28;20453;-69
2021/10/05 02:47:46;;;;;;;19.40;15.80;;;;;;;10.63;80.43;100029.84;5065990;28;20448;-68
2021/10/05 02:50:12;;;;;;;20.00;14.60;;;;;;;10.69;80.21;100033.78;5055849;28;20952;-68
2021/10/05 02:52:39;;;;;;;18.50;14.70;;;;;;;10.73;80.13;100024.47;5063694;28;20468;-69
2021/10/05 02:55:06;;;;;;;22.40;16.87;;;;;;;10.71;80.37;100029.97;5069561;28;20468;-68
2021/10/05 02:57:33;;;;;;;19.63;14.90;;;;;;;10.83;79.71;100024.41;5082718;28;20463;-68
2021/10/05 03:00:00;;;;;;;20.90;14.53;;;;;;;10.88;79.16;100017.66;5082557;28;20479;-69
2021/10/05 03:02:28;;;;;;;18.60;14.70;;;;;;;10.84;79.41;100007.41;5065047;28;20512;-68
2021/10/05 03:04:56;;;;;;;20.00;14.90;;;;;;;10.69;79.61;100010.56;5063883;28;20446;-69
2021/10/05 03:07:23;;;;;;;22.30;14.80;;;;;;;10.76;79.58;100007.28;5062774;28;20468;-70
2021/10/05 03:09:49;;;;;;;16.73;14.67;;;;;;;10.65;80.67;99997.63;5076815;28;20479;-68
2021/10/05 03:12:16;;;;;;;19.23;15.20;;;;;;;10.72;80.29;99994.22;5073261;28;20485;-68
2021/10/05 03:14:42;;;;;;;23.13;15.73;;;;;;;10.69;80.76;99996.34;5062994;28;20453;-69
2021/10/05 03:17:09;;;;;;;22.80;16.07;;;;;;;10.86;79.79;99984.84;5062029;28;20559;-69
2021/10/05 03:19:36;;;;;;;21.43;16.13;;;;;;;10.78;80.50;99976.75;5063205;28;20440;-69
2021/10/05 03:22:04;;;;;;;20.90;16.17;;;;;;;10.78;80.33;99981.25;5062612;28;20976;-69
2021/10/05 03:24:31;;;;;;;23.20;16.50;;;;;;;10.72;80.60;99971.97;5062386;28;20982;-69
2021/10/05 03:26:57;;;;;;;22.30;16.60;;;;;;;10.80;80.45;99963.19;5061931;28;20503;-68
2021/10/05 03:29:24;;;;;;;22.23;16.23;;;;;;;10.80;80.78;99957.84;5077060;28;20476;-69
2021/10/05 03:31:51;;;;;;;20.43;16.20;;;;;;;10.83;80.36;99963.78;5077865;28;20551;-68
2021/10/05 03:34:17;;;;;;;22.20;17.43;;;;;;;10.83;80.35;99955.75;5065698;28;20477;-69
2021/10/05 03:36:44;;;;;;;21.17;16.57;;;;;;;10.88;80.69;99949.94;5062541;28;20511;-69
2021/10/05 03:39:12;;;;;;;22.37;16.20;;;;;;;10.86;80.66;99950.09;5077002;28;20436;-68
2021/10/05 03:41:39;;;;;;;24.97;17.50;;;;;;;10.86;80.22;99947.41;5079427;28;20563;-69
2021/10/05 03:44:05;;;;;;;22.50;16.97;;;;;;;10.91;80.26;99942.44;5062034;28;20452;-69
2021/10/05 03:46:32;;;;;;;22.70;17.50;;;;;;;11.00;80.19;99950.56;5079296;28;20686;-68
2021/10/05 03:48:59;;;;;;;22.33;17.50;;;;;;;11.10;79.64;99938.81;5081125;28;20472;-69
2021/10/05 03:51:26;;;;;;;23.90;18.00;;;;;;;10.99;79.68;99946.19;5081504;28;20937;-69
2021/10/05 03:53:52;;;;;;;21.60;16.03;;;;;;;10.81;80.51;99930.97;5081489;28;20487;-69
2021/10/05 03:56:20;;;;;;;20.90;16.27;;;;;;;10.82;80.46;99929.16;5058986;28;20510;-69
2021/10/05 03:58:47;;;;;;;20.53;15.53;;;;;;;10.85;80.46;99929.69;5063489;28;20580;-69
2021/10/05 04:01:13;;;;;;;20.80;16.57;;;;;;;10.89;80.43;99928.41;5060688;28;20519;-69
2021/10/05 04:03:41;;;;;;;21.67;16.63;;;;;;;10.90;80.52;99922.06;5061990;28;20449;-69
2021/10/05 04:06:08;;;;;;;22.70;17.07;;;;;;;10.82;80.49;99921.13;5043694;28;20485;-69
2021/10/05 04:08:35;;;;;;;22.30;16.63;;;;;;;10.83;80.72;99926.34;5042750;28;20506;-69
2021/10/05 04:11:02;;;;;;;23.33;17.10;;;;;;;10.84;80.59;99909.28;5054889;28;20539;-69
2021/10/05 04:13:30;;;;;;;22.53;16.53;;;;;;;10.87;80.40;99919.69;5050600;28;20463;-69
2021/10/05 04:15:57;;;;;;;22.53;16.67;;;;;;;10.85;80.37;99908.31;5061605;28;20512;-69
2021/10/05 04:18:23;;;;;;;24.47;17.50;;;;;;;10.83;80.53;99904.94;5047107;28;20537;-69
2021/10/05 04:20:50;;;;;;;25.97;16.60;;;;;;;10.82;80.55;99897.06;5051344;28;20523;-69
2021/10/05 04:23:17;;;;;;;25.40;18.57;;;;;;;10.82;80.24;99892.56;5061153;28;20521;-69
2021/10/05 04:25:43;;;;;;;19.63;16.43;;;;;;;10.86;80.23;99885.06;5058574;28;20496;-69
2021/10/05 04:28:10;;;;;;;22.43;16.10;;;;;;;10.87;80.23;99886.75;5050702;28;20462;-69
2021/10/05 04:30:38;;;;;;;20.77;16.17;;;;;;;10.96;79.98;99882.34;5052687;28;20499;-69
2021/10/05 04:33:05;;;;;;;19.60;15.57;;;;;;;10.74;80.57;99869.25;5047373;28;20458;-69
2021/10/05 04:35:31;;;;;;;23.50;17.00;;;;;;;10.76;80.62;99887.78;5041074;28;20569;-69
2021/10/05 04:37:58;;;;;;;22.23;17.40;;;;;;;10.80;80.61;99872.28;5061082;28;20527;-69
2021/10/05 04:40:24;;;;;;;25.90;17.47;;;;;;;10.92;80.18;99876.44;5057779;28;20525;-69
2021/10/05 04:42:51;;;;;;;23.83;17.37;;;;;;;10.91;79.99;99878.25;5037131;28;20565;-70
2021/10/05 04:45:18;;;;;;;20.90;15.80;;;;;;;10.90;80.18;99873.06;5039091;28;20481;-69
2021/10/05 04:47:46;;;;;;;21.30;16.80;;;;;;;10.91;79.82;99875.59;5040380;28;20442;-69
2021/10/05 04:50:14;;;;;;;20.83;14.27;;;;;;;10.95;79.71;99884.16;5039419;28;20458;-70
2021/10/05 04:52:41;;;;;;;20.63;15.90;;;;;;;11.05;79.66;99881.41;5059391;28;20477;-69
2021/10/05 04:55:08;;;;;;;22.33;16.60;;;;;;;10.98;79.95;99872.31;5059711;28;20961;-69
2021/10/05 04:57:35;;;;;;;25.33;18.03;;;;;;;10.98;79.82;99870.47;5043340;28;20477;-70
2021/10/05 05:00:03;;;;;;;22.70;17.17;;;;;;;10.93;80.24;99870.91;5039964;28;20457;-70
2021/10/05 05:02:29;;;;;;;22.50;16.27;;;;;;;10.96;79.94;99863.63;5058000;28;21025;-70
2021/10/05 05:04:57;;;;;;;23.57;17.67;;;;;;;10.92;80.13;99860.41;5059137;28;21050;-70
2021/10/05 05:07:24;;;;;;;20.67;15.87;;;;;;;11.02;80.01;99863.81;5060035;28;20791;-69
2021/10/05 05:09:51;;;;;;;22.80;17.67;;;;;;;10.82;80.36;99849.75;5059903;28;20493;-69
2021/10/05 05:12:17;;;;;;;24.47;17.43;;;;;;;10.89;80.37;99850.84;5054194;28;20487;-70
2021/10/05 05:14:44;;;;;;;24.40;18.37;;;;;;;10.87;80.89;99843.97;5049961;28;20481;-70
2021/10/05 05:17:11;;;;;;;27.67;17.30;;;;;;;11.28;80.87;99842.50;5059385;28;20575;-70
2021/10/05 05:19:37;;;;;;;28.70;19.20;;;;;;;11.65;81.74;99841.41;5057532;28;20472;-70
2021/10/05 05:22:06;;;;;;;30.40;19.40;;;;;;;11.43;79.43;99842.75;5060303;28;20580;-70
2021/10/05 05:24:32;;;;;;;26.83;17.40;;;;;;;11.42;79.90;99843.78;5059943;28;20955;-70
2021/10/05 05:26:59;;;;;;;24.60;18.50;;;;;;;11.15;80.00;99847.41;5058840;28;20477;-70
2021/10/05 05:29:26;;;;;;;24.00;18.70;;;;;;;11.24;79.52;99835.75;5060111;28;20449;-70
2021/10/05 05:31:57;;;;;;;24.40;18.00;;;;;;;11.25;79.58;99840.13;5059630;28;20481;-71
2021/10/05 05:34:24;;;;;;;24.17;18.80;;;;;;;11.34;79.62;99829.50;5059979;28;20463;-72
2021/10/05 05:36:51;;;;;;;22.87;17.30;;;;;;;11.29;79.19;99827.25;5060873;28;20552;-70
2021/10/05 05:39:19;;;;;;;24.80;18.37;;;;;;;11.18;79.21;99832.84;5063490;28;20487;-71
2021/10/05 05:41:46;;;;;;;25.10;17.30;;;;;;;11.20;79.22;99834.41;5061998;28;20496;-71
2021/10/05 05:44:13;;;;;;;21.73;16.20;;;;;;;11.11;79.46;99829.97;5063472;28;20453;-71
2021/10/05 05:46:40;;;;;;;24.27;17.50;;;;;;;11.18;79.32;99827.50;5063937;28;20469;-71
2021/10/05 05:49:06;;;;;;;23.63;17.17;;;;;;;11.14;79.27;99831.50;5063203;28;20500;-71
2021/10/05 05:51:33;;;;;;;21.50;16.63;;;;;;;11.18;79.46;99830.19;5063869;28;20929;-71
2021/10/05 05:54:00;;;;;;;23.50;17.20;;;;;;;11.25;79.08;99832.09;5064512;28;20685;-70
2021/10/05 05:56:28;;;;;;;22.53;16.83;;;;;;;11.24;79.00;99826.91;5062509;28;20506;-71
2021/10/05 05:58:55;;;;;;;27.13;17.80;;;;;;;11.21;78.94;99829.88;5063768;28;20540;-71
2021/10/05 06:01:22;;;;;;;26.67;19.17;;;;;;;11.26;78.93;99822.22;5069259;28;20743;-71
2021/10/05 06:03:50;;;;;;;24.87;17.23;;;;;;;11.24;79.12;99827.72;5063259;28;20475;-71
2021/10/05 06:06:16;;;;;;;25.37;18.07;;;;;;;11.27;79.02;99818.56;5063010;28;20487;-71
2021/10/05 06:08:43;;;;;;;22.13;17.40;;;;;;;11.28;79.14;99812.19;5064465;28;20508;-71
2021/10/05 06:11:10;;;;;;;23.97;17.30;;;;;;;11.30;78.97;99810.19;5072348;28;20492;-71
2021/10/05 06:13:38;;;;;;;26.40;18.07;;;;;;;11.29;79.20;99804.00;5063645;28;20448;-71
2021/10/05 06:16:05;;;;;;;24.87;18.07;;;;;;;11.31;78.98;99801.19;5062970;28;20560;-71
2021/10/05 06:18:31;;;;;;;19.93;16.37;;;;;;;11.51;78.71;99799.16;5062369;28;21066;-70
2021/10/05 06:20:58;;;;;;;21.30;17.03;;;;;;;11.58;78.41;99802.03;5062766;28;20473;-71
2021/10/05 06:23:25;;;;;;;24.60;16.90;;;;;;;11.62;78.04;99800.72;5063767;28;20484;-72
2021/10/05 06:25:54;;;;;;;24.50;17.13;;;;;;;11.65;78.13;99803.09;5060893;28;21034;-71
2021/10/05 06:28:21;;;;;;;20.53;16.73;;;;;;;11.71;77.77;99790.91;5062711;28;20512;-71
2021/10/05 06:30:49;;;;;;;21.47;17.27;;;;;;;11.71;77.52;99786.38;5062456;28;20476;-71
2021/10/05 06:33:17;;;;;;;24.83;17.00;;;;;;;11.61;77.78;99788.31;5042526;28;20727;-71
2021/10/05 06:35:44;;;;;;;20.70;16.47;;;;;;;11.71;77.71;99791.72;5042927;28;20980;-70
2021/10/05 06:38:11;;;;;;;27.90;17.80;;;;;;;11.77;77.56;99779.53;5042693;28;20474;-71
2021/10/05 06:40:38;;;;;;;21.27;16.53;;;;;;;11.80;77.55;99774.69;5041614;28;20481;-71
2021/10/05 06:43:05;;;;;;;23.87;17.13;;;;;;;11.88;77.42;99777.41;5044199;28;20457;-71
2021/10/05 06:45:32;;;;;;;22.67;16.97;;;;;;;11.95;77.40;99780.31;5062208;28;20468;-71
2021/10/05 06:48:00;;;;;;;22.30;16.90;;;;;;;12.01;77.07;99771.66;5063373;28;20425;-70
2021/10/05 06:50:30;;;;;;;22.30;17.60;;;;;;;12.09;76.85;99784.22;5065128;28;20468;-71
2021/10/05 06:52:57;;;;;;;22.13;16.27;;;;;;;11.97;77.02;99774.81;5065479;28;20457;-71
2021/10/05 06:55:23;;;;;;;22.17;15.77;;;;;;;11.96;77.01;99770.44;5077723;28;20451;-71
2021/10/05 06:57:50;;;;;;;21.80;16.00;;;;;;;12.07;76.98;99763.97;5082501;28;20463;-70
2021/10/05 07:00:17;;;;;;;25.10;16.90;;;;;;;12.24;76.63;99766.53;5081474;28;21003;-71
2021/10/05 07:02:45;;;;;;;19.10;15.50;;;;;;;12.44;75.67;99763.56;5054600;28;20454;-71
2021/10/05 07:05:14;;;;;;;20.80;17.27;;;;;;;12.55;75.40;99765.06;5042112;28;20461;-71
2021/10/05 07:07:41;;;;;;;23.20;16.37;;;;;;;12.58;75.21;99762.91;5042361;28;20465;-71
2021/10/05 07:10:09;;;;;;;21.80;16.60;;;;;;;12.44;75.37;99768.91;5041230;28;20484;-71
2021/10/05 07:12:36;;;;;;;19.20;16.20;;;;;;;12.30;76.25;99762.34;5056391;28;20441;-71
2021/10/05 07:15:03;;;;;;;20.33;16.77;;;;;;;12.50;75.76;99762.91;5061512;28;20480;-70
2021/10/05 07:17:30;;;;;;;20.43;15.80;;;;;;;12.48;75.59;99761.38;5060847;28;20465;-71
2021/10/05 07:19:56;;;;;;;17.83;14.70;;;;;;;12.58;75.71;99757.53;5061934;28;20503;-71
2021/10/05 07:22:24;;;;;;;18.60;16.47;;;;;;;12.45;75.84;99751.84;5057609;28;20541;-71
2021/10/05 07:24:51;;;;;;;19.43;15.70;;;;;;;12.74;75.26;99750.50;5040739;28;20477;-70
2021/10/05 07:27:18;;;;;;;22.70;15.97;;;;;;;12.59;75.35;99753.03;5041517;28;20508;-71
2021/10/05 07:29:45;;;;;;;19.03;15.17;;;;;;;12.76;74.99;99754.72;5041610;28;20520;-70
2021/10/05 07:32:12;;;;;;;19.70;15.70;;;;;;;12.77;74.71;99747.50;5040917;28;20493;-71
2021/10/05 07:34:38;;;;;;;19.17;15.40;;;;;;;12.98;74.36;99752.34;5041669;28;20488;-71
2021/10/05 07:37:05;;;;;;;17.20;14.10;;;;;;;12.99;74.06;99741.47;5041735;28;20489;-71
2021/10/05 07:39:33;;;;;;;17.03;14.73;;;;;;;13.19;73.88;99733.91;5025851;28;20546;-71
2021/10/05 07:42:00;;;;;;;21.03;16.13;;;;;;;13.30;73.52;99742.63;5021444;28;20513;-71
2021/10/05 07:44:29;;;;;;;18.23;13.60;;;;;;;13.45;73.42;99723.97;5021236;28;20490;-70
2021/10/05 07:46:58;;;;;;;16.77;14.10;;;;;;;13.58;73.10;99726.13;5020931;28;20470;-70
2021/10/05 07:49:25;;;;;;;16.40;14.53;;;;;;;13.55;72.59;99728.13;5022263;28;20446;-70
2021/10/05 07:51:51;;;;;;;14.77;12.93;;;;;;;13.93;72.01;99728.31;5023442;28;20470;-70
2021/10/05 07:54:18;;;;;;;16.80;14.57;;;;;;;13.82;71.31;99722.47;5040492;28;20541;-70
2021/10/05 07:56:46;;;;;;;17.77;12.87;;;;;;;13.92;71.27;99707.84;5041319;28;20501;-71
2021/10/05 07:59:13;;;;;;;14.37;12.50;;;;;;;14.29;70.79;99717.03;5043878;28;20595;-70
2021/10/05 08:01:39;;;;;;;16.27;13.53;;;;;;;14.35;69.71;99710.09;5071046;28;20506;-70
2021/10/05 08:04:06;;;;;;;15.47;13.83;;;;;;;14.47;69.47;99703.28;5081273;28;20555;-70
2021/10/05 08:06:33;;;;;;;13.00;11.40;;;;;;;14.67;68.98;99689.41;5080802;28;20502;-71
2021/10/05 08:09:00;;;;;;;14.53;12.40;;;;;;;14.25;69.20;99694.22;5080744;28;20451;-71
2021/10/05 08:11:26;;;;;;;16.70;12.20;;;;;;;14.27;69.84;99700.25;5075348;28;20468;-70
2021/10/05 08:13:54;;;;;;;14.10;11.43;;;;;;;14.64;69.15;99698.66;5060857;28;20457;-70
2021/10/05 08:16:25;;;;;;;13.60;12.10;;;;;;;15.14;67.77;99701.75;5059751;28;20476;-71
2021/10/05 08:18:51;;;;;;;13.43;10.50;;;;;;;14.85;67.96;99699.84;5061307;28;20468;-70
2021/10/05 08:21:18;;;;;;;13.13;11.83;;;;;;;14.57;69.15;99702.22;5060586;28;20457;-71
2021/10/05 08:23:45;;;;;;;11.47;10.27;;;;;;;14.91;67.51;99701.78;5076662;28;20463;-71
2021/10/05 08:26:12;;;;;;;11.97;10.77;;;;;;;14.45;68.73;99697.25;5080354;28;20475;-70
2021/10/05 08:28:38;;;;;;;11.80;10.53;;;;;;;14.39;69.81;99689.91;5080840;28;20474;-71
2021/10/05 08:31:06;;;;;;;12.40;10.93;;;;;;;14.12;70.67;99685.88;5079832;28;20475;-70
2021/10/05 08:33:33;;;;;;;13.93;10.43;;;;;;;14.69;69.29;99681.97;5080690;28;20452;-71
2021/10/05 08:36:00;;;;;;;10.87;9.77;;;;;;;14.81;69.05;99674.31;5080440;28;20552;-70
2021/10/05 08:38:26;;;;;;;12.43;9.90;;;;;;;15.10;68.49;99686.13;5080079;28;20467;-70
2021/10/05 08:40:53;;;;;;;12.03;9.50;;;;;;;15.71;65.84;99673.31;5080279;28;20653;-70
2021/10/05 08:43:21;;;;;;;8.97;8.07;;;;;;;15.17;66.44;99674.47;5075736;28;20484;-71
2021/10/05 08:45:47;;;;;;;9.20;8.30;;;;;;;14.76;67.70;99685.63;5059432;28;20475;-71
2021/10/05 08:48:16;;;;;;;8.63;7.73;;;;;;;14.93;67.93;99667.47;5061106;28;20525;-71
2021/10/05 08:50:43;;;;;;;8.53;7.73;;;;;;;15.33;67.14;99664.50;5060080;28;20476;-71
2021/10/05 08:53:09;;;;;;;8.97;7.73;;;;;;;15.65;65.69;99657.88;5058904;28;20457;-71
2021/10/05 08:55:36;;;;;;;8.30;7.43;;;;;;;16.62;62.61;99651.25;5039600;28;20490;-71
2021/10/05 08:58:03;;;;;;;9.53;6.87;;;;;;;16.57;62.37;99649.13;5041504;28;20438;-71
2021/10/05 09:00:31;;;;;;;7.43;6.67;;;;;;;16.83;61.57;99649.56;5038234;28;20474;-72
2021/10/05 09:02:58;;;;;;;5.63;5.03;;;;;;;16.36;61.61;99646.47;5040762;28;20499;-70
2021/10/05 09:05:27;;;;;;;6.63;4.47;;;;;;;16.62;60.04;99645.88;5039619;28;20466;-71
2021/10/05 09:07:56;;;;;;;3.53;3.23;;;;;;;16.83;60.82;99636.06;5040114;28;20470;-71
2021/10/05 09:10:26;;;;;;;3.60;2.80;;;;;;;16.87;59.08;99643.63;5040259;28;20462;-71
2021/10/05 09:12:53;;;;;;;2.90;2.30;;;;;;;17.54;55.22;99633.19;5060760;28;20445;-70
2021/10/05 09:15:22;;;;;;;2.07;1.90;;;;;;;17.31;56.56;99628.91;5082749;28;20447;-71
2021/10/05 09:17:55;;;;;;;4.57;1.80;;;;;;;16.64;59.68;99629.47;5084810;28;20455;-71
2021/10/05 09:20:24;;;;;;;2.03;1.70;;;;;;;17.08;58.63;99628.34;5072730;28;20580;-71
2021/10/05 09:23:00;;;;;;;2.13;1.90;;;;;;;16.90;59.29;99618.91;5064024;28;20464;-71
2021/10/05 09:25:32;;;;;;;1.80;1.60;;;;;;;17.17;58.51;99610.13;5063930;28;20487;-71
2021/10/05 09:28:01;;;;;;;3.80;1.80;;;;;;;16.78;58.38;99619.63;5065553;28;20466;-70
2021/10/05 09:30:27;;;;;;;2.80;2.50;;;;;;;16.23;60.17;99613.97;5061998;28;21127;-70
2021/10/05 09:33:02;;;;;;;2.53;1.77;;;;;;;16.30;60.50;99601.38;5064772;28;20480;-70
2021/10/05 09:35:41;;;;;;;4.60;2.10;;;;;;;15.67;62.64;99601.94;5063710;28;20502;-70
2021/10/05 09:38:13;;;;;;;2.57;1.90;;;;;;;16.11;62.44;99609.09;5063908;28;20463;-70
2021/10/05 09:40:40;;;;;;;3.10;1.43;;;;;;;15.93;62.35;99592.50;5062878;28;20477;-70
2021/10/05 09:43:18;;;;;;;2.23;2.03;;;;;;;15.90;62.33;99590.19;5063768;28;20441;-70
2021/10/05 09:45:45;;;;;;;3.10;2.30;;;;;;;16.00;61.56;99596.97;5042191;28;20914;-70
2021/10/05 09:48:11;;;;;;;2.40;2.20;;;;;;;15.32;63.05;99600.91;5044686;28;20520;-70
2021/10/05 09:50:38;;;;;;;2.20;2.00;;;;;;;15.42;62.92;99594.19;5043045;28;20489;-71
2021/10/05 09:53:06;;;;;;;2.93;1.60;;;;;;;15.81;62.86;99595.72;5043180;28;20505;-70
2021/10/05 09:55:36;;;;;;;2.20;2.00;;;;;;;16.04;61.81;99588.47;5043112;28;20469;-71
2021/10/05 09:58:03;;;;;;;2.50;2.10;;;;;;;15.79;61.92;99578.88;5056971;28;20447;-71
2021/10/05 10:00:32;;;;;;;2.47;1.73;;;;;;;15.72;61.87;99577.97;5080884;28;20468;-70
2021/10/05 10:02:59;;;;;;;4.30;1.93;;;;;;;15.62;62.54;99572.88;5083809;28;20444;-71
2021/10/05 10:05:27;;;;;;;1.83;1.63;;;;;;;15.39;62.28;99566.81;5082718;28;20504;-70
2021/10/05 10:07:55;;;;;;;2.80;1.67;;;;;;;15.32;62.42;99569.41;5083000;28;20424;-70
2021/10/05 10:10:24;;;;;;;2.03;1.73;;;;;;;15.74;61.81;99575.06;5082883;28;20499;-70
2021/10/05 10:12:55;;;;;;;1.57;1.40;;;;;;;15.81;61.79;99562.53;5066800;28;20465;-70
2021/10/05 10:15:24;;;;;;;2.53;2.10;;;;;;;16.00;61.59;99559.22;5061827;28;20480;-71
2021/10/05 10:17:51;;;;;;;2.07;1.97;;;;;;;15.61;61.27;99563.13;5063509;28;20457;-71
2021/10/05 10:20:22;;;;;;;1.90;1.67;;;;;;;16.18;60.45;99561.44;5062293;28;20492;-70
2021/10/05 10:22:49;;;;;;;1.90;1.70;;;;;;;16.36;60.25;99560.13;5062357;28;20963;-70
2021/10/05 10:25:21;;;;;;;1.50;1.40;;;;;;;16.32;60.39;99548.91;5062128;28;20477;-70
2021/10/05 10:27:48;;;;;;;2.23;1.90;;;;;;;15.75;60.84;99547.97;5063739;28;20453;-71
2021/10/05 10:30:16;;;;;;;3.03;1.60;;;;;;;15.79;61.45;99548.41;5062193;28;20453;-71
2021/10/05 10:32:45;;;;;;;1.80;1.70;;;;;;;15.53;62.29;99548.94;5064626;28;20457;-70
2021/10/05 10:35:13;;;;;;;1.53;1.43;;;;;;;16.19;59.86;99549.59;5064162;28;20492;-72
2021/10/05 10:37:44;;;;;;;1.37;1.27;;;;;;;15.92;60.43;99550.41;5062600;28;20512;-71
2021/10/05 10:40:13;;;;;;;1.83;1.63;;;;;;;15.90;61.55;99550.63;5062448;28;20504;-71
2021/10/05 10:42:40;;;;;;;2.00;1.30;;;;;;;15.59;60.90;99548.19;5058366;28;20461;-71
2021/10/05 10:45:16;;;;;;;1.60;1.50;;;;;;;15.76;60.79;99549.66;5061086;28;20507;-71
2021/10/05 10:47:44;;;;;;;2.70;1.90;;;;;;;16.47;59.69;99547.97;5063657;28;20429;-71
2021/10/05 10:50:13;;;;;;;1.70;1.60;;;;;;;16.09;59.65;99546.44;5062724;28;20464;-71
2021/10/05 10:52:42;;;;;;;3.00;1.90;;;;;;;15.95;60.57;99537.41;5062553;28;20460;-70
2021/10/05 10:55:10;;;;;;;1.83;1.73;;;;;;;16.15;60.63;99542.13;5062346;28;20453;-70
2021/10/05 10:57:38;;;;;;;2.03;1.60;;;;;;;16.15;59.72;99531.34;5062671;28;20541;-71
2021/10/05 11:00:14;;;;;;;1.50;1.40;;;;;;;15.70;62.56;99534.19;5061037;28;20528;-70
2021/10/05 11:02:46;;;;;;;2.03;1.37;;;;;;;15.94;61.69;99524.09;5062922;28;20512;-70
2021/10/05 11:05:13;;;;;;;1.90;1.70;;;;;;;15.70;61.66;99525.28;5061162;28;20544;-70
2021/10/05 11:07:40;;;;;;;1.93;1.73;;;;;;;15.63;61.57;99517.97;5061827;28;20429;-70
2021/10/05 11:10:10;;;;;;;2.10;1.70;;;;;;;15.96;60.24;99522.03;5062017;28;20900;-71
2021/10/05 11:12:39;;;;;;;1.50;1.40;;;;;;;16.14;60.38;99518.88;5048207;28;20638;-71
2021/10/05 11:15:08;;;;;;;6.47;1.60;;;;;;;15.93;61.24;99507.06;5040105;28;20461;-71
2021/10/05 11:17:35;;;;;;;4.20;1.67;;;;;;;15.70;61.94;99517.19;5042687;28;20463;-71
2021/10/05 11:20:08;;;;;;;2.40;2.20;;;;;;;16.08;61.13;99520.50;5077718;28;20547;-70